Time,TemperatureF,DewpointF,PressureIn,WindDirection,WindDirectionDegrees,WindSpeedMPH,WindSpeedGustMPH,Humidity,HourlyPrecipIn,Conditions,Clouds,dailyrainin,SoftwareType,DateUTC
2013-11-22 00:01:00,47.0,42.0,29.86,North,0,0.0,2.0,82,0.00,,,-99.99,,2013-11-22 08:01:00,
2013-11-22 00:21:00,47.0,41.0,29.86,North,0,0.0,2.0,78,0.00,,,-99.99,,2013-11-22 08:21:00,
2013-11-22 00:31:00,47.0,41.0,29.86,North,0,0.0,2.0,78,0.00,,,-99.99,,2013-11-22 08:31:00,
2013-11-22 00:52:00,48.0,40.0,29.85,ENE,60,2.0,2.0,74,0.00,,,-99.99,,2013-11-22 08:52:00,
2013-11-22 01:02:00,48.0,40.0,29.85,ENE,60,2.0,2.0,74,0.00,,,-99.99,,2013-11-22 09:02:00,
2013-11-22 01:21:00,48.0,39.0,29.85,ENE,60,1.0,1.0,70,0.00,,,-99.99,,2013-11-22 09:21:00,
2013-11-22 01:34:00,48.0,39.0,29.85,ENE,60,1.0,1.0,70,0.00,,,-99.99,,2013-11-22 09:34:00,
2013-11-22 01:53:00,48.0,39.0,29.85,ENE,60,1.0,1.0,70,0.00,,,-99.99,,2013-11-22 09:53:00,
2013-11-22 02:03:00,48.0,39.0,29.85,ENE,60,1.0,1.0,70,0.00,,,-99.99,,2013-11-22 10:03:00,
2013-11-22 02:23:00,47.0,38.0,29.85,ENE,70,2.0,2.0,70,0.00,,,-99.99,,2013-11-22 10:23:00,
2013-11-22 02:33:00,47.0,38.0,29.85,ENE,70,2.0,2.0,70,0.00,,,-99.99,,2013-11-22 10:33:00,
2013-11-22 02:52:00,48.0,37.0,29.85,East,80,8.0,8.0,66,0.01,,,-99.99,,2013-11-22 10:52:00,
2013-11-22 03:02:00,48.0,37.0,29.85,East,80,8.0,8.0,66,0.01,,,-99.99,,2013-11-22 11:02:00,
2013-11-22 03:22:00,49.0,37.0,29.84,North,0,0.0,1.0,64,0.00,,,-99.99,,2013-11-22 11:22:00,
2013-11-22 03:33:00,49.0,37.0,29.84,North,0,0.0,1.0,64,0.00,,,-99.99,,2013-11-22 11:33:00,
2013-11-22 03:52:00,49.0,37.0,29.85,North,-999,0.0,0.0,63,0.00,,,-99.99,,2013-11-22 11:52:00,
2013-11-22 04:02:00,49.0,37.0,29.85,North,-999,0.0,0.0,63,0.00,,,-99.99,,2013-11-22 12:02:00,
2013-11-22 04:21:00,48.0,37.0,29.86,ENE,60,6.0,7.0,65,0.00,,,-99.99,,2013-11-22 12:21:00,
2013-11-22 04:32:00,48.0,37.0,29.86,ENE,60,6.0,7.0,65,0.00,,,-99.99,,2013-11-22 12:32:00,
2013-11-22 04:52:00,48.0,36.0,29.87,North,-999,0.0,0.0,63,0.00,,,-99.99,,2013-11-22 12:52:00,
2013-11-22 05:01:00,48.0,36.0,29.87,North,-999,0.0,0.0,63,0.00,,,-99.99,,2013-11-22 13:01:00,
2013-11-22 05:22:00,48.0,36.0,29.88,ENE,70,2.0,2.0,64,0.00,,,-99.99,,2013-11-22 13:22:00,
2013-11-22 05:32:00,48.0,36.0,29.88,ENE,70,2.0,2.0,64,0.00,,,-99.99,,2013-11-22 13:32:00,
2013-11-22 05:52:00,48.0,36.0,29.89,North,-999,0.0,0.0,62,0.00,,,-99.99,,2013-11-22 13:52:00,
2013-11-22 06:02:00,48.0,36.0,29.89,North,-999,0.0,0.0,62,0.00,,,-99.99,,2013-11-22 14:02:00,
2013-11-22 06:22:00,48.0,34.0,29.90,ENE,60,1.0,2.0,59,0.00,,,-99.99,,2013-11-22 14:22:00,
2013-11-22 06:32:00,48.0,34.0,29.90,ENE,60,1.0,2.0,59,0.00,,,-99.99,,2013-11-22 14:32:00,
2013-11-22 06:52:00,48.0,34.0,29.92,North,-999,0.0,0.0,59,0.00,,,-99.99,,2013-11-22 14:52:00,
2013-11-22 07:02:00,48.0,34.0,29.92,North,-999,0.0,0.0,59,0.00,,,-99.99,,2013-11-22 15:02:00,
2013-11-22 07:22:00,48.0,35.0,29.92,NE,50,1.0,1.0,61,0.00,,,-99.99,,2013-11-22 15:22:00,
2013-11-22 07:34:00,48.0,35.0,29.92,NE,50,1.0,1.0,61,0.00,,,-99.99,,2013-11-22 15:34:00,
2013-11-22 07:54:00,49.0,35.0,29.93,North,-999,0.0,0.0,59,0.00,,,-99.99,,2013-11-22 15:54:00,
2013-11-22 08:03:00,49.0,35.0,29.93,North,-999,0.0,0.0,59,0.00,,,-99.99,,2013-11-22 16:03:00,
2013-11-22 08:23:00,49.0,37.0,29.94,North,-999,0.0,0.0,62,0.01,,,-99.99,,2013-11-22 16:23:00,
2013-11-22 08:33:00,49.0,37.0,29.94,North,-999,0.0,0.0,62,0.01,,,-99.99,,2013-11-22 16:33:00,
2013-11-22 08:53:00,50.0,37.0,29.95,North,-999,0.0,0.0,61,0.00,,,-99.99,,2013-11-22 16:53:00,
2013-11-22 09:03:00,50.0,37.0,29.95,North,-999,0.0,0.0,61,0.00,,,-99.99,,2013-11-22 17:03:00,
2013-11-22 09:22:00,49.0,36.0,29.95,East,80,1.0,1.0,61,0.00,,,-99.99,,2013-11-22 17:22:00,
2013-11-22 09:34:00,49.0,36.0,29.95,East,80,1.0,1.0,61,0.00,,,-99.99,,2013-11-22 17:34:00,
2013-11-22 09:52:00,50.0,35.0,29.96,North,-999,0.0,0.0,57,0.00,,,-99.99,,2013-11-22 17:52:00,
2013-11-22 10:02:00,50.0,35.0,29.96,North,-999,0.0,0.0,57,0.00,,,-99.99,,2013-11-22 18:02:00,
2013-11-22 10:21:00,53.0,37.0,29.95,North,-999,0.0,0.0,54,0.00,,,-99.99,,2013-11-22 18:21:00,
2013-11-22 10:32:00,53.0,37.0,29.95,North,-999,0.0,0.0,54,0.00,,,-99.99,,2013-11-22 18:32:00,
2013-11-22 10:52:00,52.0,36.0,29.94,West,280,1.0,2.0,55,0.00,,,-99.99,,2013-11-22 18:52:00,
2013-11-22 11:01:00,52.0,36.0,29.94,West,280,1.0,2.0,55,0.00,,,-99.99,,2013-11-22 19:01:00,
2013-11-22 11:21:00,53.0,37.0,29.93,West,280,2.0,2.0,55,0.01,,,-99.99,,2013-11-22 19:21:00,
2013-11-22 11:31:00,53.0,37.0,29.93,West,280,2.0,2.0,55,0.01,,,-99.99,,2013-11-22 19:31:00,
2013-11-22 11:52:00,55.0,40.0,29.93,North,-999,0.0,0.0,57,0.00,,,-99.99,,2013-11-22 19:52:00,
2013-11-22 12:01:00,55.0,40.0,29.93,North,-999,0.0,0.0,57,0.00,,,-99.99,,2013-11-22 20:01:00,
2013-11-22 12:21:00,55.0,39.0,29.92,North,-999,0.0,0.0,54,0.00,,,-99.99,,2013-11-22 20:21:00,
2013-11-22 12:32:00,55.0,39.0,29.92,North,-999,0.0,0.0,54,0.00,,,-99.99,,2013-11-22 20:32:00,
2013-11-22 13:53:00,56.0,39.0,29.91,West,270,2.0,2.0,53,0.00,,,-99.99,,2013-11-22 21:53:00,
2013-11-22 14:02:00,56.0,39.0,29.91,West,270,2.0,2.0,53,0.00,,,-99.99,,2013-11-22 22:02:00,
2013-11-22 14:23:00,55.0,40.0,29.91,West,270,2.0,2.0,57,0.00,,,-99.99,,2013-11-22 22:23:00,
2013-11-22 14:33:00,55.0,40.0,29.91,West,270,2.0,2.0,57,0.00,,,-99.99,,2013-11-22 22:33:00,
2013-11-22 14:53:00,52.0,39.0,29.89,West,260,2.0,2.0,60,0.00,,,-99.99,,2013-11-22 22:53:00,
2013-11-22 15:02:00,52.0,39.0,29.89,West,260,2.0,2.0,60,0.00,,,-99.99,,2013-11-22 23:02:00,
2013-11-22 15:22:00,52.0,39.0,29.90,North,0,0.0,1.0,61,0.00,,,-99.99,,2013-11-22 23:22:00,
2013-11-22 15:33:00,52.0,39.0,29.90,North,0,0.0,1.0,61,0.00,,,-99.99,,2013-11-22 23:33:00,
2013-11-22 16:21:00,50.0,38.0,29.90,North,-999,0.0,0.0,63,0.00,,,-99.99,,2013-11-23 00:21:00,
2013-11-22 16:32:00,50.0,38.0,29.90,North,-999,0.0,0.0,63,0.00,,,-99.99,,2013-11-23 00:32:00,
2013-11-22 17:21:00,48.0,36.0,29.92,ESE,120,4.0,4.0,64,0.00,,,-99.99,,2013-11-23 01:21:00,
2013-11-22 17:31:00,48.0,36.0,29.92,ESE,120,4.0,4.0,64,0.00,,,-99.99,,2013-11-23 01:31:00,
2013-11-22 17:52:00,47.0,36.0,29.93,North,-999,0.0,0.0,65,0.00,,,-99.99,,2013-11-23 01:52:00,
2013-11-22 18:02:00,47.0,36.0,29.93,North,-999,0.0,0.0,65,0.00,,,-99.99,,2013-11-23 02:02:00,
2013-11-22 18:53:00,47.0,35.0,29.95,North,0,0.0,1.0,63,0.00,,,-99.99,,2013-11-23 02:53:00,
2013-11-22 19:01:00,47.0,35.0,29.95,North,0,0.0,1.0,63,0.00,,,-99.99,,2013-11-23 03:01:00,
2013-11-22 19:53:00,48.0,34.0,29.97,North,-999,0.0,0.0,59,0.00,,,-99.99,,2013-11-23 03:53:00,
2013-11-22 20:02:00,48.0,34.0,29.97,North,-999,0.0,0.0,59,0.00,,,-99.99,,2013-11-23 04:02:00,
2013-11-22 20:23:00,47.0,35.0,29.97,North,-999,0.0,0.0,62,0.00,,,-99.99,,2013-11-23 04:23:00,
2013-11-22 20:33:00,47.0,35.0,29.97,North,-999,0.0,0.0,62,0.00,,,-99.99,,2013-11-23 04:33:00,
2013-11-22 20:53:00,47.0,35.0,29.98,North,-999,0.0,0.0,62,0.00,,,-99.99,,2013-11-23 04:53:00,
2013-11-22 21:03:00,47.0,35.0,29.98,North,-999,0.0,0.0,62,0.00,,,-99.99,,2013-11-23 05:03:00,
2013-11-22 21:53:00,48.0,36.0,30.01,North,-999,0.0,0.0,62,0.00,,,-99.99,,2013-11-23 05:53:00,
2013-11-22 22:02:00,48.0,36.0,30.01,North,-999,0.0,0.0,62,0.00,,,-99.99,,2013-11-23 06:02:00,
2013-11-22 22:22:00,48.0,35.0,30.01,ENE,60,2.0,2.0,61,0.00,,,-99.99,,2013-11-23 06:22:00,
2013-11-22 22:32:00,48.0,35.0,30.01,ENE,60,2.0,2.0,61,0.00,,,-99.99,,2013-11-23 06:32:00,
2013-11-22 22:52:00,47.0,36.0,30.01,ENE,60,3.0,3.0,66,0.00,,,-99.99,,2013-11-23 06:52:00,
2013-11-22 23:01:00,47.0,36.0,30.01,ENE,60,3.0,3.0,66,0.00,,,-99.99,,2013-11-23 07:01:00,
2013-11-22 23:52:00,47.0,36.0,30.01,North,-999,0.0,0.0,65,0.00,,,-99.99,,2013-11-23 07:52:00,